Wister, Oklahoma
Current Conditions -  °F | °C
As of 1:15 PM on Friday 21 Nov 2014 (Local Time) from KRKR Reporting Station
Overcast Overcast  
Wind Chill: 56°   Ceiling: 1900
Heat Index: 56°   Visibility: 10mi
Dew Point: 47°   Wind: 3mph
Humidity: 72%   Direction: 60°ENE
Pressure: 30.15"   Gusts: NA
Location:  34.97°N, 94.72°W
Report Text: KRKR 211915Z AUTO 06003KT 10SM OVC019 14/09 A3015 RMK AO2 T01350086
Loading
Personal Weather Stations






























Interactive Weather Map New forecast layout! Learn more

10-Day Weather Forecast

Advertisements
Track Severe Weather on mobile